ZHI weather

Grenchen Airport
Grenchen, Canton of Solothurn, Switzerland

Public forecast

Using degrees Celsius for public forecast. Weather courtesy of forecast.io.

METAR (pilot weather report)

Retrieved 2019/09/23 10:20 UTC (0 seconds ago):

LSZG 231020Z 19005KT 9999 SCT015 SCT040 17/12 Q1018 NOSIG

TAF (pilot weather forecast)

Closest forecast is EuroAirport Basel-Mulhouse-Freiburg Airport, 24.9 nm (46.2 km) N. Retrieved 2019/09/23 06:21 UTC (4 hours ago):

TAF LFSB 230500Z 2306/2406 20004KT 9999 BKN020 BECMG 2307/2309 27008KT BECMG 2315/2317 CAVOK BECMG 2321/2323 4000 MIFG NSC PROB30 2401/2404 0400 FG VV///